Time;durP1;ratioP1;P1;durP2;ratioP2;P2;SDS_P1;SDS_P2;PMS_P1;PMS_P2;Temp;Humidity;BMP_temperature;BMP_pressure;BME280_temperature;BME280_humidity;BME280_pressure;Samples;Min_cycle;Max_cycle;Signal;HPM_P1;HPM_P2
2022/03/05 00:01:40;;;;;;;8.23;2.92;;;;;;;-2.82;100.00;102240.06;5044832;28;20450;-82
2022/03/05 00:04:06;;;;;;;8.40;3.13;;;;;;;-2.78;100.00;102253.09;5031878;28;20028;-81
2022/03/05 00:06:31;;;;;;;10.27;3.80;;;;;;;-2.66;100.00;102265.81;5069073;28;20118;-82
2022/03/05 00:08:57;;;;;;;11.48;3.28;;;;;;;-2.61;100.00;102249.84;5038946;28;20045;-81
2022/03/05 00:11:22;;;;;;;8.70;2.88;;;;;;;-2.52;100.00;102240.75;5049557;28;20036;-81
2022/03/05 00:13:48;;;;;;;7.03;2.60;;;;;;;-2.45;100.00;102240.47;5065367;28;20432;-82
2022/03/05 00:16:14;;;;;;;8.18;2.63;;;;;;;-2.19;100.00;102266.81;5056953;28;20044;-82
2022/03/05 00:18:39;;;;;;;8.85;3.30;;;;;;;-2.15;100.00;102257.84;5051711;28;20044;-81
2022/03/05 00:21:05;;;;;;;5.45;2.20;;;;;;;-2.16;100.00;102246.47;5033657;28;20094;-83
2022/03/05 00:23:30;;;;;;;4.53;2.25;;;;;;;-1.96;100.00;102268.56;5024131;28;20033;-82
2022/03/05 00:25:56;;;;;;;12.18;2.50;;;;;;;-2.01;100.00;102258.22;5046177;28;20090;-82
2022/03/05 00:28:22;;;;;;;6.10;2.17;;;;;;;-1.87;100.00;102270.88;5027199;28;20046;-82
2022/03/05 00:30:47;;;;;;;4.90;2.60;;;;;;;-1.89;100.00;102270.91;5047758;28;20097;-82
2022/03/05 00:33:13;;;;;;;3.63;2.08;;;;;;;-1.97;100.00;102267.72;5064698;28;20032;-83
2022/03/05 00:35:39;;;;;;;3.05;1.60;;;;;;;-2.03;100.00;102262.69;5027007;28;20427;-83
2022/03/05 00:38:05;;;;;;;5.22;2.53;;;;;;;-2.08;100.00;102260.19;5057195;28;20363;-82
2022/03/05 00:40:30;;;;;;;6.63;1.80;;;;;;;-2.10;100.00;102262.03;5060075;28;20032;-82
2022/03/05 00:42:56;;;;;;;9.10;3.10;;;;;;;-2.01;100.00;102266.97;5030849;28;20032;-83
2022/03/05 00:45:22;;;;;;;7.20;2.35;;;;;;;-1.79;100.00;102276.69;5051613;28;20044;-81
2022/03/05 00:47:47;;;;;;;5.40;2.10;;;;;;;-1.70;100.00;102283.38;5047232;28;20086;-82
2022/03/05 00:50:13;;;;;;;7.68;2.13;;;;;;;-1.74;100.00;102280.03;5032097;28;20101;-81
2022/03/05 00:52:39;;;;;;;4.65;1.90;;;;;;;-1.69;100.00;102285.09;5042071;28;20044;-81
2022/03/05 00:55:06;;;;;;;2.63;1.05;;;;;;;-1.69;100.00;102279.81;5031096;28;20458;-82
2022/03/05 00:57:34;;;;;;;3.75;2.47;;;;;;;-1.62;100.00;102283.94;5048485;28;20037;-83
2022/03/05 00:59:59;;;;;;;3.47;2.33;;;;;;;-1.20;100.00;102289.28;5020067;28;20382;-81
2022/03/05 01:02:25;;;;;;;23.63;2.70;;;;;;;-0.78;100.00;102275.22;5051335;28;20077;-82
2022/03/05 01:04:50;;;;;;;5.05;2.17;;;;;;;-0.36;100.00;102271.66;5045466;28;20505;-81
2022/03/05 01:07:16;;;;;;;2.85;1.55;;;;;;;-0.17;100.00;102282.25;5049250;28;20528;-81
2022/03/05 01:09:44;;;;;;;2.22;1.73;;;;;;;-0.12;100.00;102280.28;5030348;28;20048;-82
2022/03/05 01:12:10;;;;;;;5.45;1.75;;;;;;;-0.05;100.00;102278.22;5047165;28;20466;-80
2022/03/05 01:14:36;;;;;;;1.67;1.08;;;;;;;-0.03;100.00;102281.63;5044947;28;20041;-80
2022/03/05 01:17:02;;;;;;;2.13;1.23;;;;;;;-0.19;100.00;102291.19;5062639;28;20045;-82
2022/03/05 01:19:27;;;;;;;6.10;2.30;;;;;;;-0.43;100.00;102282.56;5059193;28;20157;-83
2022/03/05 01:21:53;;;;;;;5.63;1.33;;;;;;;-0.77;100.00;102279.59;5023470;28;20491;-81
2022/03/05 01:24:18;;;;;;;2.85;1.15;;;;;;;-1.03;100.00;102291.25;5057193;28;20025;-82
2022/03/05 01:26:44;;;;;;;2.90;1.25;;;;;;;-1.22;100.00;102293.75;5017906;28;20391;-82
2022/03/05 01:29:10;;;;;;;2.97;1.30;;;;;;;-1.33;100.00;102296.00;5044915;28;20381;-82
2022/03/05 01:31:36;;;;;;;2.20;1.00;;;;;;;-1.52;100.00;102301.13;5044538;28;20032;-83
2022/03/05 01:34:01;;;;;;;2.60;1.30;;;;;;;-1.58;100.00;102296.97;5048381;28;20036;-82
2022/03/05 01:36:30;;;;;;;4.75;1.23;;;;;;;-1.58;100.00;102299.59;5059954;28;20039;-82
2022/03/05 01:38:56;;;;;;;2.58;1.42;;;;;;;-1.68;100.00;102295.59;5050776;28;20491;-83
2022/03/05 01:41:21;;;;;;;5.53;2.60;;;;;;;-1.82;100.00;102292.63;5061753;28;20061;-82
2022/03/05 01:43:51;;;;;;;3.17;2.17;;;;;;;-2.04;100.00;102288.19;5030217;28;20089;-84
2022/03/05 01:46:31;;;;;;;5.03;2.17;;;;;;;-2.10;100.00;102300.72;5053078;28;20039;-82
2022/03/05 01:48:57;;;;;;;6.22;2.85;;;;;;;-2.32;100.00;102298.00;5049177;28;20035;-82
2022/03/05 01:51:23;;;;;;;9.45;3.03;;;;;;;-2.46;100.00;102311.63;5040056;28;20029;-82
2022/03/05 01:53:49;;;;;;;5.70;2.90;;;;;;;-2.70;100.00;102293.16;5062863;28;20384;-82
2022/03/05 01:56:17;;;;;;;4.13;2.72;;;;;;;-2.64;100.00;102309.69;5038613;28;20045;-82
2022/03/05 01:58:42;;;;;;;5.63;2.60;;;;;;;-2.67;100.00;102308.84;5051731;28;20534;-81
2022/03/05 02:01:08;;;;;;;4.45;1.38;;;;;;;-2.58;100.00;102309.44;5052204;28;20036;-82
2022/03/05 02:03:36;;;;;;;6.20;1.85;;;;;;;-2.54;100.00;102317.19;5049378;28;20110;-83
2022/03/05 02:06:02;;;;;;;3.95;1.92;;;;;;;-2.64;100.00;102318.44;5064434;28;20058;-81
2022/03/05 02:08:28;;;;;;;1.75;1.38;;;;;;;-2.76;100.00;102324.94;5051513;28;20044;-81
2022/03/05 02:10:53;;;;;;;1.98;1.30;;;;;;;-2.72;100.00;102331.84;5062664;28;20032;-82
2022/03/05 02:13:19;;;;;;;6.78;1.90;;;;;;;-2.89;100.00;102310.47;5032162;28;20029;-83
2022/03/05 02:15:45;;;;;;;2.60;1.40;;;;;;;-2.72;100.00;102342.38;5058213;28;20081;-81
2022/03/05 02:18:10;;;;;;;1.75;1.20;;;;;;;-2.78;100.00;102344.34;5054508;28;20033;-82
2022/03/05 02:20:39;;;;;;;3.00;1.33;;;;;;;-2.92;100.00;102326.38;5039437;28;20036;-81
2022/03/05 02:23:04;;;;;;;2.90;1.55;;;;;;;-2.84;100.00;102341.91;5060428;28;20028;-81
2022/03/05 02:25:30;;;;;;;2.08;1.20;;;;;;;-2.94;100.00;102336.09;5029243;28;20033;-82
2022/03/05 02:27:57;;;;;;;3.03;1.30;;;;;;;-2.98;100.00;102342.38;5068997;28;20036;-81
2022/03/05 02:30:23;;;;;;;1.17;1.13;;;;;;;-2.85;100.00;102361.28;5045938;28;20447;-81
2022/03/05 02:32:48;;;;;;;2.63;0.98;;;;;;;-2.96;100.00;102336.16;5064440;28;20453;-81
2022/03/05 02:35:14;;;;;;;2.83;1.40;;;;;;;-2.79;100.00;102351.38;5030484;28;20032;-82
2022/03/05 02:37:40;;;;;;;5.38;1.60;;;;;;;-2.93;100.00;102348.34;5057963;28;20074;-81
2022/03/05 02:40:06;;;;;;;1.85;1.48;;;;;;;-2.89;100.00;102360.50;5049774;28;20126;-81
2022/03/05 02:42:31;;;;;;;3.17;1.25;;;;;;;-2.98;100.00;102366.91;5033986;28;20032;-83
2022/03/05 02:44:57;;;;;;;2.47;1.20;;;;;;;-3.13;100.00;102363.00;5029047;28;20393;-84
2022/03/05 02:47:22;;;;;;;1.85;1.17;;;;;;;-3.11;100.00;102369.06;5045184;28;20021;-81
2022/03/05 02:49:48;;;;;;;2.53;1.33;;;;;;;-3.18;100.00;102364.06;5050927;28;20044;-82
2022/03/05 02:52:16;;;;;;;1.55;1.15;;;;;;;-3.06;100.00;102368.09;5032564;28;20075;-82
2022/03/05 02:54:44;;;;;;;4.30;1.42;;;;;;;-3.10;100.00;102380.47;5044201;28;20043;-82
2022/03/05 02:57:09;;;;;;;0.75;0.75;;;;;;;-3.13;100.00;102378.78;5041553;28;20056;-82
2022/03/05 02:59:35;;;;;;;1.73;1.15;;;;;;;-2.63;100.00;102370.16;5024588;28;20071;-82
2022/03/05 03:02:01;;;;;;;2.55;1.30;;;;;;;-2.62;100.00;102379.81;5045590;28;21008;-81
2022/03/05 03:04:27;;;;;;;2.28;1.65;;;;;;;-2.76;100.00;102403.06;5052447;28;20159;-81
2022/03/05 03:06:52;;;;;;;4.40;1.48;;;;;;;-3.19;100.00;102360.56;5044526;28;20360;-81
2022/03/05 03:09:18;;;;;;;2.25;1.60;;;;;;;-3.17;100.00;102384.22;5049988;28;20046;-83
2022/03/05 03:11:43;;;;;;;2.20;1.02;;;;;;;-3.19;100.00;102401.81;5047656;28;20128;-81
2022/03/05 03:14:09;;;;;;;1.92;1.17;;;;;;;-3.44;100.00;102378.00;5047227;28;20124;-81
2022/03/05 03:16:35;;;;;;;0.80;0.77;;;;;;;-3.34;100.00;102403.13;5065514;28;20047;-81
2022/03/05 03:19:00;;;;;;;4.18;1.27;;;;;;;-3.35;100.00;102398.78;5058577;28;20033;-82
2022/03/05 03:21:26;;;;;;;2.50;1.35;;;;;;;-3.44;100.00;102404.28;5025982;28;20067;-81
2022/03/05 03:23:51;;;;;;;2.30;1.40;;;;;;;-3.53;100.00;102403.66;5041928;28;20060;-81
2022/03/05 03:26:17;;;;;;;2.35;1.30;;;;;;;-3.62;100.00;102397.81;5024531;28;20367;-81
2022/03/05 03:28:43;;;;;;;1.25;0.95;;;;;;;-3.61;100.00;102397.75;5032743;28;20504;-81
2022/03/05 03:31:08;;;;;;;0.80;0.80;;;;;;;-3.63;100.00;102403.97;5032317;28;20028;-82
2022/03/05 03:33:34;;;;;;;2.08;1.30;;;;;;;-3.80;100.00;102410.56;5063126;28;20032;-81
2022/03/05 03:36:00;;;;;;;2.90;1.17;;;;;;;-3.82;100.00;102420.25;5049209;28;20036;-81
2022/03/05 03:38:25;;;;;;;1.20;0.95;;;;;;;-3.89;100.00;102418.72;5067901;28;20063;-81
2022/03/05 03:40:51;;;;;;;2.35;1.23;;;;;;;-3.91;100.00;102414.41;5030969;28;20078;-82
2022/03/05 03:43:16;;;;;;;0.60;0.60;;;;;;;-3.98;100.00;102404.06;5023471;28;20033;-81
2022/03/05 03:45:45;;;;;;;2.25;1.35;;;;;;;-3.94;100.00;102409.22;5032100;28;20386;-81
2022/03/05 03:48:11;;;;;;;1.70;1.27;;;;;;;-4.14;100.00;102381.72;5043030;28;20074;-81
2022/03/05 03:50:36;;;;;;;1.75;1.27;;;;;;;-3.96;100.00;102411.91;5062364;28;20040;-81
2022/03/05 03:53:02;;;;;;;1.60;1.30;;;;;;;-4.13;100.00;102395.72;5044494;28;20047;-81
2022/03/05 03:55:28;;;;;;;1.33;0.98;;;;;;;-4.03;100.00;102399.84;5022168;28;20025;-81
2022/03/05 03:57:54;;;;;;;2.35;1.38;;;;;;;-4.00;100.00;102413.72;5060113;28;20037;-81
2022/03/05 04:00:19;;;;;;;1.40;1.13;;;;;;;-4.13;100.00;102399.22;5061822;28;20032;-81
2022/03/05 04:02:45;;;;;;;1.77;0.98;;;;;;;-4.13;100.00;102409.72;5041641;28;20035;-81
2022/03/05 04:05:14;;;;;;;1.42;1.10;;;;;;;-4.11;100.00;102404.44;5036960;28;20036;-81
2022/03/05 04:10:23;;;;;;;1.25;1.00;;;;;;;-4.30;100.00;102397.03;5055790;28;20466;-81
2022/03/05 04:12:49;;;;;;;1.60;1.15;;;;;;;-4.28;100.00;102408.38;5045536;28;20059;-82
2022/03/05 04:15:17;;;;;;;2.22;1.20;;;;;;;-4.39;100.00;102417.41;5036005;28;20024;-81
2022/03/05 04:17:43;;;;;;;1.55;1.33;;;;;;;-4.53;100.00;102416.00;5066203;28;20685;-81
2022/03/05 04:20:09;;;;;;;3.13;1.30;;;;;;;-4.50;100.00;102421.19;5049894;28;20064;-81
2022/03/05 04:22:34;;;;;;;3.38;1.10;;;;;;;-4.58;100.00;102417.00;5032853;28;20474;-81
2022/03/05 04:25:01;;;;;;;2.10;1.20;;;;;;;-4.59;100.00;102418.78;5056236;28;20033;-82
2022/03/05 04:27:27;;;;;;;1.40;1.08;;;;;;;-4.64;100.00;102434.63;5057933;28;20029;-82
2022/03/05 04:29:52;;;;;;;1.42;0.93;;;;;;;-4.91;100.00;102402.03;5057691;28;20031;-81
2022/03/05 04:32:18;;;;;;;1.73;1.40;;;;;;;-4.86;100.00;102441.31;5046354;28;20131;-81
2022/03/05 04:34:44;;;;;;;1.90;1.10;;;;;;;-4.88;100.00;102441.31;5057627;28;20513;-81
2022/03/05 04:37:09;;;;;;;0.55;0.55;;;;;;;-4.92;100.00;102442.31;5049641;28;20392;-81
2022/03/05 04:39:35;;;;;;;2.42;1.23;;;;;;;-4.79;100.00;102435.03;5030012;28;20034;-81
2022/03/05 04:42:01;;;;;;;1.77;1.13;;;;;;;-4.64;100.00;102428.53;5045216;28;20032;-81
2022/03/05 04:44:26;;;;;;;2.78;1.20;;;;;;;-4.43;100.00;102440.28;5034037;28;20024;-81
2022/03/05 04:46:54;;;;;;;1.65;1.55;;;;;;;-4.44;100.00;102439.41;5047190;28;20036;-81
2022/03/05 04:49:19;;;;;;;1.23;1.00;;;;;;;-4.43;100.00;102441.13;5058575;28;20035;-82
2022/03/05 04:51:45;;;;;;;2.80;1.13;;;;;;;-4.51;100.00;102445.72;5047966;28;20389;-82
2022/03/05 04:54:11;;;;;;;1.65;1.33;;;;;;;-4.62;100.00;102431.13;5056358;28;20489;-81
2022/03/05 04:56:37;;;;;;;1.38;0.98;;;;;;;-4.60;100.00;102447.69;5041205;28;20025;-82
2022/03/05 04:59:03;;;;;;;1.67;0.98;;;;;;;-4.61;100.00;102441.56;5040808;28;20040;-81
2022/03/05 05:01:29;;;;;;;1.52;1.42;;;;;;;-4.52;100.00;102454.50;5029195;28;20039;-81
2022/03/05 05:03:55;;;;;;;2.08;0.88;;;;;;;-4.51;100.00;102458.84;5050113;28;20093;-81
2022/03/05 05:06:21;;;;;;;4.13;1.20;;;;;;;-4.51;100.00;102460.59;5032554;28;20121;-82
2022/03/05 05:08:46;;;;;;;3.85;1.27;;;;;;;-4.51;100.00;102461.47;5048053;28;20025;-82
2022/03/05 05:11:12;;;;;;;1.52;1.23;;;;;;;-4.52;100.00;102469.38;5033415;28;20377;-82
2022/03/05 05:13:39;;;;;;;3.15;1.00;;;;;;;-4.64;100.00;102462.66;5031574;28;20064;-83
2022/03/05 05:16:05;;;;;;;1.02;0.93;;;;;;;-4.58;100.00;102464.25;5036685;28;20494;-81
2022/03/05 05:18:32;;;;;;;1.63;1.10;;;;;;;-4.52;100.00;102480.75;5050113;28;20086;-82
2022/03/05 05:20:59;;;;;;;1.38;0.95;;;;;;;-4.71;100.00;102445.31;5068680;28;20563;-81
2022/03/05 05:23:24;;;;;;;1.98;1.17;;;;;;;-4.50;100.00;102483.31;5064145;28;20028;-81
2022/03/05 05:25:50;;;;;;;0.93;0.85;;;;;;;-4.69;100.00;102461.91;5032362;28;20513;-80
2022/03/05 05:28:16;;;;;;;1.00;0.90;;;;;;;-4.71;100.00;102484.69;5053292;28;20029;-82
2022/03/05 05:30:44;;;;;;;1.08;0.93;;;;;;;-4.91;100.00;102466.78;5065363;28;20473;-81
2022/03/05 05:33:09;;;;;;;1.80;1.20;;;;;;;-4.97;100.00;102491.41;5063660;28;20127;-81
2022/03/05 05:35:35;;;;;;;2.70;1.65;;;;;;;-5.08;100.00;102490.75;5069823;28;20111;-81
2022/03/05 05:38:00;;;;;;;1.17;0.98;;;;;;;-5.05;100.00;102501.19;5046448;28;20064;-81
2022/03/05 05:40:26;;;;;;;1.73;1.10;;;;;;;-5.12;100.00;102496.97;5033609;28;20037;-81
2022/03/05 05:42:52;;;;;;;0.65;0.65;;;;;;;-5.18;100.00;102494.47;5033626;28;20025;-81
2022/03/05 05:45:17;;;;;;;1.15;1.00;;;;;;;-5.37;100.00;102467.75;5043692;28;20493;-82
2022/03/05 05:47:43;;;;;;;4.70;1.50;;;;;;;-5.20;100.00;102485.78;5034056;28;20072;-81
2022/03/05 05:50:09;;;;;;;1.60;1.42;;;;;;;-5.15;100.00;102518.03;5033774;28;20072;-82
2022/03/05 05:52:35;;;;;;;0.80;0.80;;;;;;;-5.27;100.00;102518.25;5036101;28;20021;-80
2022/03/05 05:55:01;;;;;;;1.15;1.05;;;;;;;-5.38;100.00;102506.22;5051667;28;20060;-81
2022/03/05 05:57:29;;;;;;;2.72;1.02;;;;;;;-5.37;100.00;102517.56;5052193;28;20036;-81
2022/03/05 05:59:55;;;;;;;1.80;1.58;;;;;;;-5.38;100.00;102532.44;5060529;28;20029;-81
2022/03/05 06:02:21;;;;;;;3.17;1.33;;;;;;;-5.46;100.00;102526.47;5067043;28;20032;-80
2022/03/05 06:04:47;;;;;;;1.45;1.13;;;;;;;-5.47;100.00;102534.41;5065426;28;20081;-81
2022/03/05 06:07:13;;;;;;;1.90;1.30;;;;;;;-5.49;100.00;102531.78;5055495;28;20037;-80
2022/03/05 06:09:38;;;;;;;1.38;1.15;;;;;;;-5.47;100.00;102540.50;5048902;28;20505;-80
2022/03/05 06:12:05;;;;;;;1.25;1.00;;;;;;;-5.58;100.00;102521.50;5032905;28;20025;-80
2022/03/05 06:14:30;;;;;;;5.50;1.70;;;;;;;-5.70;100.00;102500.75;5053142;28;21908;-81
2022/03/05 06:16:56;;;;;;;0.90;0.70;;;;;;;-5.45;100.00;102546.59;5068436;28;20032;-80
2022/03/05 06:19:22;;;;;;;2.80;1.38;;;;;;;-5.42;100.00;102538.66;5050644;28;20363;-80
2022/03/05 06:21:47;;;;;;;2.55;1.02;;;;;;;-5.27;100.00;102552.34;5062195;28;20033;-80
2022/03/05 06:24:13;;;;;;;1.83;1.20;;;;;;;-5.27;100.00;102547.97;5045495;28;20051;-80
2022/03/05 06:26:39;;;;;;;2.17;1.48;;;;;;;-5.25;100.00;102546.16;5060718;28;20496;-82
2022/03/05 06:29:04;;;;;;;1.75;1.38;;;;;;;-5.24;100.00;102555.78;5049296;28;20496;-79
2022/03/05 06:31:30;;;;;;;0.70;0.70;;;;;;;-5.25;100.00;102561.91;5058298;28;20033;-79
2022/03/05 06:33:56;;;;;;;2.85;1.23;;;;;;;-5.22;100.00;102566.22;5042719;28;20025;-79
2022/03/05 06:36:21;;;;;;;2.50;1.17;;;;;;;-5.33;100.00;102559.44;5050955;28;20030;-79
2022/03/05 06:38:47;;;;;;;1.27;0.70;;;;;;;-5.39;100.00;102570.03;5007101;28;1293568;-79
2022/03/05 06:41:13;;;;;;;1.45;1.20;;;;;;;-5.31;100.00;102576.00;5033342;28;20040;-79
2022/03/05 06:43:38;;;;;;;1.80;1.13;;;;;;;-5.22;100.00;102568.84;5057020;28;20041;-81
2022/03/05 06:46:04;;;;;;;4.68;1.35;;;;;;;-5.13;100.00;102582.66;5028428;28;20036;-80
2022/03/05 06:48:30;;;;;;;2.35;1.60;;;;;;;-5.26;100.00;102580.31;5025063;28;20139;-79
2022/03/05 06:50:56;;;;;;;3.95;1.40;;;;;;;-5.48;100.00;102574.59;5052619;28;20111;-79
2022/03/05 06:53:22;;;;;;;1.13;1.05;;;;;;;-5.43;100.00;102596.34;5066627;28;20044;-80
2022/03/05 06:55:47;;;;;;;3.60;1.58;;;;;;;-5.31;100.00;102596.97;5052687;28;20108;-80
2022/03/05 06:58:14;;;;;;;1.40;1.15;;;;;;;-5.23;100.00;102590.75;5046317;28;20040;-79
2022/03/05 07:00:40;;;;;;;0.70;0.70;;;;;;;-5.19;100.00;102598.50;5066238;28;20048;-79
2022/03/05 07:03:06;;;;;;;2.95;1.33;;;;;;;-5.21;100.00;102592.44;5030183;28;20454;-79
2022/03/05 07:05:31;;;;;;;0.65;0.65;;;;;;;-5.18;100.00;102602.00;5036580;28;20025;-79
2022/03/05 07:07:57;;;;;;;0.70;0.70;;;;;;;-5.31;100.00;102593.50;5037192;28;20020;-79
2022/03/05 07:10:23;;;;;;;1.15;1.15;;;;;;;-5.43;100.00;102597.19;5045157;28;20024;-79
2022/03/05 07:12:49;;;;;;;0.73;0.73;;;;;;;-5.42;100.00;102600.72;5067133;28;20078;-79
2022/03/05 07:15:14;;;;;;;2.00;1.73;;;;;;;-5.26;100.00;102610.00;5062781;28;20028;-80
2022/03/05 07:17:48;;;;;;;1.45;1.08;;;;;;;-5.27;100.00;102604.78;5053019;28;20081;-79
2022/03/05 07:20:13;;;;;;;3.03;1.17;;;;;;;-5.35;100.00;102608.41;5053435;28;20466;-80
2022/03/05 07:22:39;;;;;;;1.52;1.00;;;;;;;-5.38;100.00;102608.47;5061678;28;20115;-79
2022/03/05 07:25:05;;;;;;;1.83;1.25;;;;;;;-5.33;100.00;102617.13;5035633;28;20044;-81
2022/03/05 07:27:31;;;;;;;1.20;1.10;;;;;;;-5.27;100.00;102610.03;5069633;28;20028;-80
2022/03/05 07:29:57;;;;;;;1.00;0.82;;;;;;;-5.23;100.00;102617.81;5047340;28;20340;-79
2022/03/05 07:32:24;;;;;;;1.65;1.20;;;;;;;-5.17;100.00;102622.06;5041820;28;20147;-79
2022/03/05 07:34:50;;;;;;;2.08;1.20;;;;;;;-5.11;100.00;102616.72;5068008;28;20024;-79
2022/03/05 07:37:16;;;;;;;1.90;1.10;;;;;;;-4.98;100.00;102627.84;5061990;28;20062;-79
2022/03/05 07:39:41;;;;;;;2.13;1.25;;;;;;;-4.89;100.00;102628.53;5070522;28;20462;-79
2022/03/05 07:42:07;;;;;;;3.15;1.10;;;;;;;-4.46;100.00;102638.13;5038288;28;20059;-80
2022/03/05 07:44:33;;;;;;;1.25;1.08;;;;;;;-4.05;100.00;102632.84;5049658;28;20562;-80
2022/03/05 07:46:59;;;;;;;2.28;1.23;;;;;;;-3.69;100.00;102635.50;5061549;28;20028;-80
2022/03/05 07:49:24;;;;;;;2.53;1.30;;;;;;;-3.48;100.00;102645.47;5051919;28;20035;-80
2022/03/05 07:51:50;;;;;;;5.32;1.35;;;;;;;-3.36;100.00;102641.66;5033536;28;20563;-79
2022/03/05 07:54:16;;;;;;;2.97;1.33;;;;;;;-3.01;100.00;102663.56;5024420;28;20382;-80
2022/03/05 07:56:42;;;;;;;2.72;1.50;;;;;;;-2.86;100.00;102644.69;5057324;28;20466;-80
2022/03/05 07:59:08;;;;;;;3.05;1.70;;;;;;;-2.00;100.00;102656.19;5066439;28;20032;-81
2022/03/05 08:01:33;;;;;;;4.47;2.13;;;;;;;-0.87;100.00;102666.47;5066498;28;20067;-80
2022/03/05 08:03:59;;;;;;;3.05;2.20;;;;;;;0.31;97.53;102672.50;5065743;28;20093;-79
2022/03/05 08:06:24;;;;;;;3.75;1.70;;;;;;;1.38;93.29;102671.50;5048275;28;20028;-81
2022/03/05 08:08:52;;;;;;;4.70;2.05;;;;;;;2.17;90.89;102665.13;5043410;28;20048;-81
2022/03/05 08:11:18;;;;;;;4.22;2.55;;;;;;;2.61;89.25;102669.16;5047885;28;20108;-83
2022/03/05 08:13:43;;;;;;;4.07;2.15;;;;;;;2.89;87.01;102668.63;5049490;28;20131;-82
2022/03/05 08:16:09;;;;;;;5.63;2.63;;;;;;;2.98;87.36;102675.25;5063549;28;20109;-83
2022/03/05 08:18:34;;;;;;;5.10;2.03;;;;;;;2.66;88.90;102676.91;5048107;28;20028;-83
2022/03/05 08:21:03;;;;;;;7.72;2.08;;;;;;;2.27;90.58;102677.94;5049339;28;20428;-83
2022/03/05 08:23:29;;;;;;;3.67;2.28;;;;;;;2.81;89.82;102649.56;5033139;28;20386;-82
2022/03/05 08:25:55;;;;;;;5.10;1.77;;;;;;;3.96;86.84;102673.47;5063651;28;20031;-81
2022/03/05 08:28:22;;;;;;;3.65;1.83;;;;;;;4.09;86.56;102678.13;5067146;28;20028;-79
2022/03/05 08:30:48;;;;;;;4.72;1.80;;;;;;;4.27;86.11;102673.56;5047675;28;20040;-80
2022/03/05 08:33:16;;;;;;;3.58;2.05;;;;;;;4.62;84.76;102651.03;5065254;28;20123;-81
2022/03/05 08:35:42;;;;;;;5.45;2.17;;;;;;;5.66;82.07;102674.94;5066025;28;20036;-82
2022/03/05 08:38:08;;;;;;;6.60;2.72;;;;;;;6.71;77.74;102674.38;5063830;28;20493;-80
2022/03/05 08:40:34;;;;;;;7.50;3.40;;;;;;;7.56;74.24;102678.28;5034055;28;20040;-82
2022/03/05 08:43:00;;;;;;;5.10;2.50;;;;;;;8.13;71.70;102655.44;5030567;28;20056;-84
2022/03/05 08:45:26;;;;;;;11.85;5.38;;;;;;;8.85;69.46;102676.84;5066011;28;20362;-82
2022/03/05 08:47:52;;;;;;;5.85;3.25;;;;;;;9.57;68.78;102665.81;5064075;28;20362;-82
2022/03/05 08:50:17;;;;;;;8.55;4.65;;;;;;;10.07;67.74;102655.50;5050425;28;20476;-84
2022/03/05 08:52:43;;;;;;;12.40;4.20;;;;;;;10.64;66.73;102666.06;5062233;28;22063;-84
2022/03/05 08:55:16;;;;;;;9.23;4.00;;;;;;;11.16;65.03;102680.47;5034533;28;20119;-82
2022/03/05 08:57:43;;;;;;;7.35;3.90;;;;;;;11.21;65.04;102629.75;5059378;28;20064;-83
2022/03/05 09:00:11;;;;;;;7.38;3.58;;;;;;;11.93;64.08;102677.28;5031964;28;20060;-81
2022/03/05 09:02:36;;;;;;;9.10;4.35;;;;;;;12.41;64.91;102672.97;5066393;28;20028;-82
2022/03/05 09:05:03;;;;;;;6.78;2.65;;;;;;;12.69;62.88;102684.75;5031369;28;20030;-82
2022/03/05 09:07:29;;;;;;;6.28;2.08;;;;;;;11.07;65.51;102676.75;5050099;28;20040;-84
2022/03/05 09:09:57;;;;;;;7.03;2.50;;;;;;;8.96;73.21;102676.00;5029220;28;20033;-82
2022/03/05 09:12:23;;;;;;;4.88;2.25;;;;;;;9.98;69.41;102675.06;5040740;28;20039;-83
2022/03/05 09:14:48;;;;;;;6.20;2.00;;;;;;;11.22;67.36;102669.19;5033451;28;20040;-83
2022/03/05 09:17:15;;;;;;;5.50;2.15;;;;;;;12.68;65.10;102675.81;5049883;28;20474;-83
2022/03/05 09:19:43;;;;;;;2.78;1.90;;;;;;;13.73;63.01;102674.00;5062800;28;20067;-83
2022/03/05 09:22:10;;;;;;;3.28;1.75;;;;;;;14.13;58.18;102689.00;5035315;28;20043;-82
2022/03/05 09:24:37;;;;;;;3.70;2.15;;;;;;;14.19;59.52;102691.13;5047816;28;20036;-83
2022/03/05 09:27:04;;;;;;;3.88;1.50;;;;;;;14.45;56.72;102696.63;5064602;28;20025;-83
2022/03/05 09:29:29;;;;;;;5.32;1.90;;;;;;;14.26;58.44;102701.19;5032919;28;20037;-84
2022/03/05 09:31:55;;;;;;;6.45;2.10;;;;;;;14.45;57.80;102697.47;5041899;28;20258;-84
2022/03/05 09:34:20;;;;;;;5.38;2.28;;;;;;;14.79;58.67;102704.94;5024817;28;20090;-83
2022/03/05 09:36:46;;;;;;;5.70;1.90;;;;;;;15.15;53.58;102702.16;5049208;28;20137;-83
2022/03/05 09:39:12;;;;;;;5.47;2.03;;;;;;;14.81;54.62;102705.59;5030246;28;20580;-86
2022/03/05 09:41:39;;;;;;;3.83;2.90;;;;;;;14.47;57.38;102706.31;5061141;28;20916;-85
2022/03/05 09:44:06;;;;;;;5.13;1.90;;;;;;;15.00;56.48;102698.31;5065077;28;20499;-83
2022/03/05 09:46:32;;;;;;;2.55;1.35;;;;;;;15.54;53.81;102696.31;5033972;28;20390;-84
2022/03/05 09:48:58;;;;;;;4.20;1.83;;;;;;;15.66;54.36;102691.44;5032966;28;20036;-89
2022/03/05 09:51:27;;;;;;;8.68;1.95;;;;;;;16.36;53.01;102705.63;5042747;28;20047;-85
2022/03/05 09:53:53;;;;;;;3.28;1.63;;;;;;;16.13;49.91;102677.41;5037755;28;20089;-83
2022/03/05 09:56:19;;;;;;;3.95;1.45;;;;;;;16.14;48.95;102690.81;5057510;28;20627;-84
2022/03/05 09:58:46;;;;;;;3.83;1.40;;;;;;;16.48;50.63;102679.00;5053208;28;20040;-84
2022/03/05 10:01:12;;;;;;;4.35;1.77;;;;;;;17.13;48.77;102695.31;5031001;28;20501;-83
2022/03/05 10:03:45;;;;;;;4.47;1.60;;;;;;;17.62;46.54;102707.94;5036795;28;20512;-82
2022/03/05 10:06:24;;;;;;;3.05;1.58;;;;;;;17.71;45.71;102719.66;5069143;28;20173;-83
2022/03/05 10:08:55;;;;;;;2.75;1.60;;;;;;;17.74;41.91;102692.09;5068395;28;20097;-82
2022/03/05 10:11:21;;;;;;;2.53;1.48;;;;;;;17.99;45.14;102711.91;5047420;28;20029;-83
2022/03/05 10:13:47;;;;;;;4.32;1.70;;;;;;;18.22;43.36;102703.81;5051498;28;20047;-83
2022/03/05 10:16:33;;;;;;;4.10;1.70;;;;;;;18.00;38.73;102684.53;5066017;28;20111;-84
2022/03/05 10:19:31;;;;;;;6.20;1.70;;;;;;;17.32;41.15;102693.25;5035857;28;20481;-85
2022/03/05 10:21:59;;;;;;;4.25;1.60;;;;;;;17.67;42.23;102713.72;5011500;28;20040;-83
2022/03/05 10:24:34;;;;;;;3.78;1.67;;;;;;;17.79;41.14;102706.06;5035740;28;20040;-83
2022/03/05 10:27:00;;;;;;;4.53;2.13;;;;;;;17.76;39.99;102703.66;5047211;28;20440;-83
2022/03/05 10:29:29;;;;;;;4.25;1.65;;;;;;;18.06;42.45;102706.63;5050382;28;20501;-83
2022/03/05 10:32:01;;;;;;;5.53;1.70;;;;;;;18.63;39.74;102698.09;5051330;28;20473;-83
2022/03/05 10:34:28;;;;;;;2.47;1.40;;;;;;;18.50;39.58;102706.88;5045942;28;20032;-85
2022/03/05 10:36:58;;;;;;;4.43;1.65;;;;;;;18.56;39.12;102710.75;5053922;28;20036;-83
2022/03/05 10:39:25;;;;;;;4.15;2.17;;;;;;;18.61;38.64;102719.22;5030311;28;20119;-83
2022/03/05 10:41:52;;;;;;;6.00;1.83;;;;;;;18.75;38.59;102712.16;5069512;28;20036;-82
2022/03/05 10:44:18;;;;;;;2.65;1.40;;;;;;;18.75;35.92;102688.47;5069234;28;20036;-82
2022/03/05 10:46:46;;;;;;;2.55;1.38;;;;;;;18.64;38.33;102689.72;5028723;28;20496;-83
2022/03/05 10:49:14;;;;;;;2.58;1.40;;;;;;;18.78;36.42;102707.19;5068243;28;20067;-82
2022/03/05 10:51:40;;;;;;;2.78;1.50;;;;;;;18.62;37.33;102675.44;5070594;28;20062;-82
2022/03/05 10:54:06;;;;;;;3.60;1.52;;;;;;;18.93;36.70;102709.97;5034357;28;20032;-83
2022/03/05 10:56:33;;;;;;;2.95;1.40;;;;;;;19.13;36.03;102698.53;5024951;28;20226;-85
2022/03/05 10:59:08;;;;;;;6.00;1.98;;;;;;;19.33;37.62;102696.97;5033414;28;20556;-82
2022/03/05 11:01:36;;;;;;;6.95;2.60;;;;;;;20.15;35.06;102715.94;5031704;28;20489;-83
2022/03/05 11:04:03;;;;;;;3.83;1.58;;;;;;;20.27;33.07;102702.66;5069463;28;20033;-87
2022/03/05 11:06:29;;;;;;;5.57;2.65;;;;;;;19.90;34.11;102693.59;5041194;28;20041;-83
2022/03/05 11:08:56;;;;;;;9.80;4.03;;;;;;;18.47;35.45;102680.00;5057701;28;20025;-82
2022/03/05 11:11:25;;;;;;;10.65;4.32;;;;;;;16.79;38.20;102697.38;5066429;28;20094;-84
2022/03/05 11:13:51;;;;;;;6.90;2.17;;;;;;;16.11;40.11;102687.56;5065242;28;20068;-85
2022/03/05 11:16:17;;;;;;;6.55;1.75;;;;;;;16.32;39.65;102706.13;5050992;28;20585;-85
2022/03/05 11:18:47;;;;;;;5.38;1.67;;;;;;;16.46;40.21;102708.19;5032595;28;20121;-83